createdAt,value
2018-12-31T00:00:36.356Z,21.03
2018-12-31T00:03:04.200Z,22.83
2018-12-31T00:05:31.864Z,22.60
2018-12-31T00:07:59.811Z,22.03
2018-12-31T00:10:27.423Z,23.17
2018-12-31T00:12:57.300Z,21.93
2018-12-31T00:15:24.900Z,25.17
2018-12-31T00:17:52.495Z,25.17
2018-12-31T00:20:20.090Z,23.43
2018-12-31T00:22:47.661Z,25.37
2018-12-31T00:25:15.293Z,24.37
2018-12-31T00:27:42.881Z,24.40
2018-12-31T00:30:10.809Z,24.77
2018-12-31T00:32:38.470Z,25.90
2018-12-31T00:35:06.089Z,25.67
2018-12-31T00:37:33.684Z,24.33
2018-12-31T00:40:02.502Z,26.10
2018-12-31T00:42:30.496Z,25.47
2018-12-31T00:44:58.227Z,23.87
2018-12-31T00:47:25.997Z,25.20
2018-12-31T00:49:53.640Z,26.63
2018-12-31T00:52:21.216Z,25.57
2018-12-31T00:54:48.811Z,23.23
2018-12-31T00:57:16.380Z,22.27
2018-12-31T00:59:43.978Z,21.87
2018-12-31T01:02:11.555Z,19.77
2018-12-31T01:04:39.242Z,21.53
2018-12-31T01:07:06.812Z,20.13
2018-12-31T01:09:34.428Z,20.43
2018-12-31T01:12:02.051Z,20.80
2018-12-31T01:14:29.683Z,20.57
2018-12-31T01:16:57.432Z,21.47
2018-12-31T01:19:25.032Z,22.17
2018-12-31T01:21:52.628Z,22.33
2018-12-31T01:24:20.200Z,20.50
2018-12-31T01:26:47.791Z,22.50
2018-12-31T01:29:15.401Z,20.50
2018-12-31T01:31:42.988Z,20.90
2018-12-31T01:34:10.551Z,24.77
2018-12-31T01:36:38.195Z,20.50
2018-12-31T01:39:06.017Z,18.27
2018-12-31T01:41:33.637Z,22.47
2018-12-31T01:44:01.213Z,17.77
2018-12-31T01:46:28.994Z,19.00
2018-12-31T01:48:56.663Z,19.13
2018-12-31T01:51:24.188Z,24.23
2018-12-31T01:53:51.797Z,21.77
2018-12-31T01:56:19.398Z,22.83
2018-12-31T01:58:46.984Z,20.73
2018-12-31T02:01:14.628Z,20.83
2018-12-31T02:03:42.214Z,18.87
2018-12-31T02:06:09.844Z,21.50
2018-12-31T02:08:37.470Z,21.47
2018-12-31T02:11:05.076Z,22.17
2018-12-31T02:13:32.675Z,22.53
2018-12-31T02:16:00.298Z,22.10
2018-12-31T02:18:27.908Z,23.93
2018-12-31T02:20:55.531Z,23.17
2018-12-31T02:23:23.140Z,21.60
2018-12-31T02:25:53.760Z,23.43
2018-12-31T02:28:21.331Z,22.17
2018-12-31T02:30:49.239Z,22.03
2018-12-31T02:33:19.265Z,22.57
2018-12-31T02:35:46.844Z,22.63
2018-12-31T02:38:14.800Z,18.03
2018-12-31T02:40:42.508Z,22.33
2018-12-31T02:43:10.149Z,17.13
2018-12-31T02:45:37.821Z,17.73
2018-12-31T02:48:05.417Z,20.03
2018-12-31T02:50:33.013Z,19.17
2018-12-31T02:53:00.592Z,17.90
2018-12-31T02:55:28.196Z,20.37
2018-12-31T02:57:55.780Z,19.47
2018-12-31T03:00:23.814Z,16.47
2018-12-31T03:02:51.374Z,17.23
2018-12-31T03:05:18.981Z,18.20
2018-12-31T03:07:46.655Z,20.53
2018-12-31T03:10:14.201Z,17.27
2018-12-31T03:12:41.818Z,18.40
2018-12-31T03:15:09.461Z,19.17
2018-12-31T03:17:37.050Z,20.57
2018-12-31T03:20:04.758Z,21.23
2018-12-31T03:22:32.398Z,22.83
2018-12-31T03:25:00.004Z,23.03
2018-12-31T03:27:27.609Z,21.57
2018-12-31T03:29:55.188Z,21.50
2018-12-31T03:32:22.809Z,20.57
2018-12-31T03:34:50.407Z,24.03
2018-12-31T03:37:18.012Z,21.57
2018-12-31T03:39:45.625Z,21.83
2018-12-31T03:42:13.277Z,20.90
2018-12-31T03:44:40.882Z,21.33
2018-12-31T03:47:08.519Z,19.10
2018-12-31T03:49:36.131Z,20.67
2018-12-31T03:52:03.693Z,26.10
2018-12-31T03:54:31.259Z,20.87
2018-12-31T03:56:58.852Z,20.13
2018-12-31T03:59:26.452Z,19.13
2018-12-31T04:01:54.057Z,20.20
2018-12-31T04:04:21.620Z,19.90
2018-12-31T04:06:49.299Z,24.53
2018-12-31T04:09:17.068Z,22.27
2018-12-31T04:11:44.784Z,18.83
2018-12-31T04:14:12.796Z,21.30
2018-12-31T04:16:40.452Z,18.63
2018-12-31T04:19:08.234Z,18.63
2018-12-31T04:21:35.847Z,19.03
2018-12-31T04:24:03.477Z,16.53
2018-12-31T04:26:31.133Z,16.87
2018-12-31T04:28:58.689Z,19.70
2018-12-31T04:31:26.313Z,16.77
2018-12-31T04:33:53.964Z,18.53
2018-12-31T04:36:21.626Z,21.30
2018-12-31T04:38:50.523Z,18.20
2018-12-31T04:41:18.148Z,19.07
2018-12-31T04:43:45.787Z,20.93
2018-12-31T04:46:13.452Z,18.40
2018-12-31T04:48:41.659Z,20.10
2018-12-31T04:51:09.223Z,22.73
2018-12-31T04:53:36.837Z,23.23
2018-12-31T04:56:04.528Z,22.70
2018-12-31T04:58:32.141Z,21.07
2018-12-31T05:00:59.745Z,24.17
2018-12-31T05:03:27.595Z,25.13
2018-12-31T05:05:55.196Z,24.60
2018-12-31T05:08:22.964Z,22.67
2018-12-31T05:10:50.561Z,22.10
2018-12-31T05:13:18.148Z,21.03
2018-12-31T05:15:45.804Z,24.50
2018-12-31T05:18:13.525Z,22.07
2018-12-31T05:20:41.424Z,24.73
2018-12-31T05:23:09.265Z,22.57
2018-12-31T05:25:36.852Z,22.23
2018-12-31T05:28:04.725Z,26.13
2018-12-31T05:30:32.284Z,28.17
2018-12-31T05:32:59.851Z,26.23
2018-12-31T05:35:27.448Z,27.10
2018-12-31T05:37:55.019Z,28.07
2018-12-31T05:40:22.612Z,28.97
2018-12-31T05:42:50.240Z,28.33
2018-12-31T05:45:17.866Z,30.70
2018-12-31T05:47:45.448Z,27.53
2018-12-31T05:50:13.125Z,24.20
2018-12-31T05:52:40.804Z,29.07
2018-12-31T05:55:08.586Z,32.33
2018-12-31T05:57:36.128Z,27.00
2018-12-31T06:00:04.026Z,24.30
2018-12-31T06:02:31.620Z,26.63
2018-12-31T06:04:59.281Z,24.53
2018-12-31T06:07:26.840Z,23.23
2018-12-31T06:09:54.782Z,26.90
2018-12-31T06:12:22.405Z,23.17
2018-12-31T06:14:50.051Z,24.77
2018-12-31T06:17:17.766Z,27.20
2018-12-31T06:19:45.400Z,26.00
2018-12-31T06:22:13.155Z,25.33
2018-12-31T06:24:40.932Z,21.87
2018-12-31T06:27:08.547Z,20.23
2018-12-31T06:29:36.116Z,20.87
2018-12-31T06:32:03.792Z,21.10
2018-12-31T06:34:32.710Z,20.13
2018-12-31T06:37:00.311Z,20.60
2018-12-31T06:39:27.933Z,22.47
2018-12-31T06:41:55.564Z,21.73
2018-12-31T06:44:23.174Z,20.17
2018-12-31T06:46:50.768Z,23.57
2018-12-31T06:49:18.498Z,20.20
2018-12-31T06:51:46.092Z,17.30
2018-12-31T06:54:13.812Z,21.47
2018-12-31T06:56:41.509Z,21.67
2018-12-31T06:59:09.136Z,20.03
2018-12-31T07:01:37.041Z,22.03
2018-12-31T07:04:04.902Z,21.87
2018-12-31T07:06:32.552Z,21.20
2018-12-31T07:09:00.169Z,18.77
2018-12-31T07:11:27.963Z,22.97
2018-12-31T07:13:55.555Z,21.70
2018-12-31T07:16:23.156Z,21.90
2018-12-31T07:18:50.745Z,19.73
2018-12-31T07:21:18.337Z,19.33
2018-12-31T07:23:45.923Z,17.80
2018-12-31T07:26:13.505Z,18.80
2018-12-31T07:28:42.124Z,17.87
2018-12-31T07:31:09.718Z,19.40
2018-12-31T07:33:37.320Z,16.60
2018-12-31T07:36:04.913Z,20.53
2018-12-31T07:38:32.507Z,17.03
2018-12-31T07:41:00.116Z,15.20
2018-12-31T07:43:27.712Z,19.83
2018-12-31T07:45:55.333Z,14.87
2018-12-31T07:48:23.032Z,17.07
2018-12-31T07:50:50.653Z,16.10
2018-12-31T07:53:20.554Z,16.87
2018-12-31T07:55:48.177Z,16.27
2018-12-31T07:58:15.796Z,14.93
2018-12-31T08:00:43.512Z,16.57
2018-12-31T08:03:11.216Z,15.60
2018-12-31T08:05:38.830Z,15.77
2018-12-31T08:08:06.427Z,12.77
2018-12-31T08:10:34.320Z,13.37
2018-12-31T08:13:01.925Z,18.27
2018-12-31T08:15:29.637Z,13.33
2018-12-31T08:17:57.219Z,15.47
2018-12-31T08:20:24.866Z,16.60
2018-12-31T08:22:52.499Z,16.10
2018-12-31T08:25:20.128Z,15.20
2018-12-31T08:27:47.749Z,15.83
2018-12-31T08:30:15.331Z,15.70
2018-12-31T08:32:43.133Z,16.90
2018-12-31T08:35:10.814Z,15.20
2018-12-31T08:37:38.542Z,16.73
2018-12-31T08:40:06.163Z,20.57
2018-12-31T08:42:33.748Z,22.33
2018-12-31T08:45:01.398Z,18.77
2018-12-31T08:47:28.995Z,17.37
2018-12-31T08:49:56.642Z,20.53
2018-12-31T08:52:24.258Z,14.87
2018-12-31T08:54:51.871Z,18.83
2018-12-31T08:57:19.472Z,16.43
2018-12-31T08:59:47.049Z,16.00
2018-12-31T09:02:14.750Z,19.47
2018-12-31T09:04:42.657Z,16.17
2018-12-31T09:07:10.282Z,16.50
2018-12-31T09:09:37.864Z,17.57
2018-12-31T09:12:05.548Z,14.43
2018-12-31T09:14:33.174Z,15.63
2018-12-31T09:17:00.763Z,14.97
2018-12-31T09:19:28.629Z,12.53
2018-12-31T09:21:56.209Z,13.63
2018-12-31T09:24:23.813Z,13.37
2018-12-31T09:26:51.945Z,12.03
2018-12-31T09:29:19.516Z,15.07
2018-12-31T09:31:47.214Z,12.63
2018-12-31T09:34:14.800Z,13.40
2018-12-31T09:36:42.695Z,14.07
2018-12-31T09:39:10.278Z,14.87
2018-12-31T09:41:37.885Z,14.93
2018-12-31T09:44:05.637Z,14.13
2018-12-31T09:46:33.474Z,15.80
2018-12-31T09:49:01.085Z,18.43
2018-12-31T09:51:28.702Z,15.83
2018-12-31T09:53:56.296Z,14.20
2018-12-31T09:56:24.226Z,16.40
2018-12-31T09:58:54.393Z,16.10
2018-12-31T10:01:22.049Z,15.60
2018-12-31T10:03:51.276Z,15.07
2018-12-31T10:06:18.956Z,13.63
2018-12-31T10:08:49.423Z,16.20
2018-12-31T10:11:16.156Z,15.83
2018-12-31T10:13:43.811Z,15.53
2018-12-31T10:16:11.479Z,15.13
2018-12-31T10:18:39.143Z,17.27
2018-12-31T10:21:10.557Z,16.73
2018-12-31T10:23:38.195Z,14.73
2018-12-31T10:26:05.848Z,16.90
2018-12-31T10:28:33.452Z,18.60
2018-12-31T10:31:01.080Z,12.60
2018-12-31T10:33:28.752Z,14.97
2018-12-31T10:35:56.418Z,15.73
2018-12-31T10:38:24.015Z,13.20
2018-12-31T10:40:51.772Z,13.57
2018-12-31T10:43:19.508Z,17.20
2018-12-31T10:45:47.600Z,16.40
2018-12-31T10:48:15.217Z,20.27
2018-12-31T10:50:42.871Z,16.93
2018-12-31T10:53:10.432Z,15.77
2018-12-31T10:55:40.186Z,15.97
2018-12-31T10:58:09.159Z,16.30
2018-12-31T11:00:36.726Z,14.47
2018-12-31T11:03:11.445Z,14.53
2018-12-31T11:05:39.035Z,16.47
2018-12-31T11:08:06.636Z,17.73
2018-12-31T11:10:34.268Z,15.60
2018-12-31T11:13:01.897Z,15.43
2018-12-31T11:15:29.514Z,13.33
2018-12-31T11:17:57.357Z,13.23
2018-12-31T11:20:24.952Z,14.10
2018-12-31T11:22:52.536Z,14.20
2018-12-31T11:25:20.140Z,13.60
2018-12-31T11:27:47.829Z,9.77
2018-12-31T11:30:15.386Z,13.63
2018-12-31T11:32:42.992Z,12.83
2018-12-31T11:35:10.673Z,8.33
2018-12-31T11:37:38.272Z,10.33
2018-12-31T11:40:06.522Z,11.33
2018-12-31T11:42:34.432Z,14.13
2018-12-31T11:45:02.030Z,12.90
2018-12-31T11:47:29.702Z,16.80
2018-12-31T11:49:59.702Z,15.90
2018-12-31T11:52:28.488Z,11.07
2018-12-31T11:54:56.091Z,13.00
2018-12-31T11:57:23.649Z,15.07
2018-12-31T11:59:51.626Z,12.30
2018-12-31T12:02:23.476Z,11.83
2018-12-31T12:04:48.704Z,14.67
2018-12-31T12:07:16.436Z,14.83
2018-12-31T12:09:44.599Z,14.57
2018-12-31T12:12:12.727Z,12.00
2018-12-31T12:14:40.302Z,13.30
2018-12-31T12:17:07.928Z,10.77
2018-12-31T12:19:35.536Z,11.73
2018-12-31T12:22:03.174Z,16.13
2018-12-31T12:24:30.798Z,9.20
2018-12-31T12:26:58.687Z,9.17
2018-12-31T12:29:26.302Z,10.83
2018-12-31T12:31:53.911Z,10.00
2018-12-31T12:34:21.540Z,11.03
2018-12-31T12:36:49.148Z,10.63
2018-12-31T12:39:16.808Z,12.93
2018-12-31T12:41:44.651Z,12.77
2018-12-31T12:44:12.336Z,12.77
2018-12-31T12:46:40.027Z,11.73
2018-12-31T12:49:07.625Z,13.13
2018-12-31T12:51:35.233Z,11.37
2018-12-31T12:54:03.230Z,11.67
2018-12-31T12:56:30.768Z,14.27
2018-12-31T12:58:58.403Z,11.57
2018-12-31T13:01:26.676Z,13.20
2018-12-31T13:03:54.468Z,13.37
2018-12-31T13:06:22.112Z,13.50
2018-12-31T13:08:49.729Z,10.93
2018-12-31T13:11:17.374Z,10.37
2018-12-31T13:13:45.116Z,9.53
2018-12-31T13:16:12.832Z,9.17
2018-12-31T13:18:40.417Z,11.23
2018-12-31T13:21:08.444Z,9.97
2018-12-31T13:23:36.129Z,9.27
2018-12-31T13:26:04.036Z,14.17
2018-12-31T13:28:31.624Z,8.57
2018-12-31T13:30:59.201Z,10.83
2018-12-31T13:33:26.819Z,9.43
2018-12-31T13:35:54.432Z,10.30
2018-12-31T13:38:22.237Z,11.20
2018-12-31T13:40:49.809Z,12.53
2018-12-31T13:43:17.448Z,9.57
2018-12-31T13:45:45.550Z,10.53
2018-12-31T13:48:13.653Z,10.07
2018-12-31T13:50:41.296Z,7.33
2018-12-31T13:53:08.988Z,7.70
2018-12-31T13:55:36.651Z,7.97
2018-12-31T13:58:04.244Z,6.10
2018-12-31T14:00:31.859Z,5.97
2018-12-31T14:02:59.473Z,5.30
2018-12-31T14:05:27.056Z,6.07
2018-12-31T14:07:54.944Z,6.03
2018-12-31T14:10:22.536Z,5.03
2018-12-31T14:12:50.176Z,4.97
2018-12-31T14:15:18.100Z,6.20
2018-12-31T14:17:45.832Z,5.77
2018-12-31T14:20:13.627Z,7.43
2018-12-31T14:22:41.269Z,6.23
2018-12-31T14:25:08.919Z,6.10
2018-12-31T14:27:36.504Z,6.03
2018-12-31T14:30:05.872Z,6.87
2018-12-31T14:32:33.476Z,6.77
2018-12-31T14:35:01.068Z,8.57
2018-12-31T14:37:28.810Z,7.87
2018-12-31T14:39:56.485Z,6.17
2018-12-31T14:42:24.311Z,7.23
2018-12-31T14:44:51.916Z,8.83
2018-12-31T14:47:19.536Z,6.60
2018-12-31T14:49:47.174Z,7.87
2018-12-31T14:52:14.928Z,7.80
2018-12-31T14:54:42.561Z,9.17
2018-12-31T14:57:10.157Z,9.30
2018-12-31T14:59:37.768Z,9.80
2018-12-31T15:02:05.655Z,8.80
2018-12-31T15:04:33.298Z,8.27
2018-12-31T15:07:00.927Z,7.13
2018-12-31T15:09:28.832Z,7.83
2018-12-31T15:11:56.460Z,8.70
2018-12-31T15:14:24.097Z,9.23
2018-12-31T15:16:51.700Z,9.70
2018-12-31T15:19:19.305Z,8.90
2018-12-31T15:21:46.943Z,7.97
2018-12-31T15:24:14.669Z,8.47
2018-12-31T15:26:42.592Z,10.50
2018-12-31T15:29:10.289Z,10.23
2018-12-31T15:31:37.884Z,8.73
2018-12-31T15:34:05.586Z,8.90
2018-12-31T15:36:33.600Z,9.57
2018-12-31T15:39:01.220Z,10.57
2018-12-31T15:41:29.576Z,10.13
2018-12-31T15:43:57.199Z,13.63
2018-12-31T15:46:24.802Z,10.93
2018-12-31T15:48:52.433Z,10.97
2018-12-31T15:51:20.049Z,12.80
2018-12-31T15:53:47.668Z,13.73
2018-12-31T15:56:15.480Z,13.30
2018-12-31T15:58:43.108Z,15.53
2018-12-31T16:01:10.727Z,12.30
2018-12-31T16:03:38.824Z,14.47
2018-12-31T16:06:06.483Z,15.97
2018-12-31T16:08:34.121Z,16.93
2018-12-31T16:11:01.724Z,14.47
2018-12-31T16:13:29.346Z,13.27
2018-12-31T16:15:56.925Z,15.07
2018-12-31T16:18:24.542Z,13.47
2018-12-31T16:20:52.165Z,11.00
2018-12-31T16:23:19.764Z,12.83
2018-12-31T16:25:47.532Z,17.97
2018-12-31T16:28:15.348Z,15.47
2018-12-31T16:30:42.915Z,20.77
2018-12-31T16:33:11.128Z,17.60
2018-12-31T16:35:38.718Z,16.40
2018-12-31T16:38:06.301Z,17.97
2018-12-31T16:40:33.948Z,16.37
2018-12-31T16:43:01.711Z,17.00
2018-12-31T16:45:29.610Z,14.70
2018-12-31T16:47:57.256Z,18.17
2018-12-31T16:50:24.885Z,21.37
2018-12-31T16:52:52.576Z,22.53
2018-12-31T16:55:20.204Z,17.47
2018-12-31T16:57:47.823Z,17.20
2018-12-31T17:00:15.430Z,19.73
2018-12-31T17:02:43.028Z,17.40
2018-12-31T17:05:10.666Z,16.77
2018-12-31T17:07:38.234Z,15.60
2018-12-31T17:10:07.650Z,13.30
2018-12-31T17:12:35.256Z,17.60
2018-12-31T17:15:02.872Z,16.00
2018-12-31T17:17:30.502Z,15.13
2018-12-31T17:19:58.100Z,20.73
2018-12-31T17:22:25.699Z,25.70
2018-12-31T17:24:53.304Z,24.90
2018-12-31T17:27:21.224Z,29.10
2018-12-31T17:29:48.838Z,40.67
2018-12-31T17:32:16.529Z,43.10
2018-12-31T17:34:44.198Z,40.40
2018-12-31T17:37:11.804Z,33.77
2018-12-31T17:39:39.476Z,21.47
2018-12-31T17:42:09.773Z,16.63
2018-12-31T17:44:36.572Z,17.07
2018-12-31T17:47:04.528Z,15.30
2018-12-31T17:49:32.280Z,18.73
2018-12-31T17:51:59.840Z,23.57
2018-12-31T17:54:27.844Z,24.70
2018-12-31T17:56:55.432Z,27.50
2018-12-31T17:59:23.040Z,22.73
2018-12-31T18:01:50.716Z,20.13
2018-12-31T18:04:18.440Z,17.90
2018-12-31T18:06:46.176Z,17.27
2018-12-31T18:09:14.024Z,19.77
2018-12-31T18:11:41.648Z,21.27
2018-12-31T18:14:09.215Z,18.33
2018-12-31T18:16:37.527Z,22.37
2018-12-31T18:19:05.101Z,21.93
2018-12-31T18:21:33.284Z,20.63
2018-12-31T18:24:00.952Z,20.93
2018-12-31T18:26:28.586Z,21.60
2018-12-31T18:28:56.209Z,20.70
2018-12-31T18:31:23.789Z,34.30
2018-12-31T18:33:51.378Z,32.50
2018-12-31T18:36:19.204Z,37.10
2018-12-31T18:38:46.797Z,44.20
2018-12-31T18:41:14.467Z,48.70
2018-12-31T18:43:42.068Z,47.60
2018-12-31T18:46:09.720Z,34.87
2018-12-31T18:48:37.409Z,31.17
2018-12-31T18:51:05.016Z,32.43
2018-12-31T18:53:32.671Z,29.73
2018-12-31T18:56:00.252Z,43.23
2018-12-31T18:58:27.851Z,38.83
2018-12-31T19:00:55.425Z,43.17
2018-12-31T19:03:23.012Z,41.73
2018-12-31T19:05:50.688Z,55.33
2018-12-31T19:08:18.427Z,60.77
2018-12-31T19:10:46.783Z,51.47
2018-12-31T19:13:14.488Z,47.77
2018-12-31T19:15:42.122Z,25.23
2018-12-31T19:18:10.136Z,32.33
2018-12-31T19:20:37.734Z,30.93
2018-12-31T19:23:05.308Z,31.70
2018-12-31T19:25:32.942Z,33.50
2018-12-31T19:28:00.527Z,27.57
2018-12-31T19:30:28.108Z,26.60
2018-12-31T19:32:55.937Z,22.47
2018-12-31T19:35:23.492Z,19.80
2018-12-31T19:37:51.123Z,19.30
2018-12-31T19:40:18.792Z,20.97
2018-12-31T19:42:46.415Z,25.93
2018-12-31T19:45:14.211Z,20.17
2018-12-31T19:47:41.749Z,24.53
2018-12-31T19:50:10.252Z,22.27
2018-12-31T19:52:37.812Z,24.93
2018-12-31T19:55:07.259Z,24.63
2018-12-31T19:57:34.835Z,19.37
2018-12-31T20:00:02.985Z,16.03
2018-12-31T20:02:30.590Z,16.00
2018-12-31T20:04:58.167Z,20.43
2018-12-31T20:07:25.800Z,21.97
2018-12-31T20:09:53.383Z,30.17
2018-12-31T20:12:21.021Z,65.97
2018-12-31T20:14:48.979Z,26.27
2018-12-31T20:17:16.584Z,21.63
2018-12-31T20:19:44.160Z,15.43
2018-12-31T20:22:11.748Z,22.87
2018-12-31T20:24:39.320Z,50.73
2018-12-31T20:27:06.923Z,28.43
2018-12-31T20:29:34.702Z,18.90
2018-12-31T20:32:02.343Z,19.27
2018-12-31T20:34:29.923Z,31.87
2018-12-31T20:36:57.521Z,22.73
2018-12-31T20:39:25.159Z,16.03
2018-12-31T20:41:52.815Z,18.17
2018-12-31T20:44:20.760Z,15.83
2018-12-31T20:46:48.419Z,16.90
2018-12-31T20:49:16.016Z,15.70
2018-12-31T20:51:43.920Z,19.47
2018-12-31T20:54:11.492Z,19.20
2018-12-31T20:56:39.164Z,17.73
2018-12-31T20:59:07.128Z,18.97
2018-12-31T21:01:34.775Z,18.27
2018-12-31T21:04:02.357Z,18.60
2018-12-31T21:06:29.957Z,18.47
2018-12-31T21:08:57.575Z,16.93
2018-12-31T21:11:25.184Z,16.57
2018-12-31T21:13:53.074Z,18.37
2018-12-31T21:16:20.682Z,17.73
2018-12-31T21:18:48.356Z,24.03
2018-12-31T21:21:16.726Z,24.80
2018-12-31T21:23:44.424Z,25.57
2018-12-31T21:26:12.075Z,21.17
2018-12-31T21:28:39.728Z,17.77
2018-12-31T21:31:07.321Z,19.50
2018-12-31T21:33:34.911Z,23.10
2018-12-31T21:36:02.506Z,20.43
2018-12-31T21:38:30.092Z,19.07
2018-12-31T21:40:57.691Z,20.03
2018-12-31T21:43:25.409Z,24.03
2018-12-31T21:45:53.034Z,21.97
2018-12-31T21:48:20.701Z,20.77
2018-12-31T21:50:48.358Z,20.90
2018-12-31T21:53:15.945Z,40.27
2018-12-31T21:55:43.703Z,31.23
2018-12-31T21:58:11.356Z,29.47
2018-12-31T22:00:38.931Z,23.37
2018-12-31T22:03:06.496Z,22.50
2018-12-31T22:05:34.084Z,26.47
2018-12-31T22:08:01.700Z,24.57
2018-12-31T22:10:29.788Z,38.07
2018-12-31T22:12:57.380Z,39.17
2018-12-31T22:15:24.953Z,54.67
2018-12-31T22:17:52.588Z,123.83
2018-12-31T22:20:20.429Z,80.40
2018-12-31T22:22:48.059Z,82.43
2018-12-31T22:25:15.935Z,47.10
2018-12-31T22:27:43.578Z,41.07
2018-12-31T22:30:11.148Z,31.03
2018-12-31T22:32:38.787Z,25.03
2018-12-31T22:35:06.428Z,28.80
2018-12-31T22:37:34.120Z,35.53
2018-12-31T22:40:01.928Z,31.97
2018-12-31T22:42:29.576Z,31.50
2018-12-31T22:44:57.220Z,40.77
2018-12-31T22:47:24.819Z,33.20
2018-12-31T22:49:52.452Z,33.93
2018-12-31T22:52:20.171Z,39.73
2018-12-31T22:54:47.769Z,33.30
2018-12-31T22:57:15.677Z,31.10
2018-12-31T22:59:43.334Z,37.37
2018-12-31T23:02:10.920Z,63.97
2018-12-31T23:04:38.528Z,234.53
2018-12-31T23:07:08.000Z,196.67
2018-12-31T23:09:41.135Z,205.67
2018-12-31T23:12:05.563Z,357.57
2018-12-31T23:14:33.140Z,441.17
2018-12-31T23:17:03.988Z,578.87
2018-12-31T23:19:31.850Z,486.20
2018-12-31T23:21:59.457Z,279.07
2018-12-31T23:24:27.040Z,243.10
2018-12-31T23:26:54.652Z,201.03
2018-12-31T23:29:22.694Z,136.37
2018-12-31T23:31:50.465Z,132.77
2018-12-31T23:34:18.255Z,120.37
2018-12-31T23:36:45.856Z,113.93
2018-12-31T23:39:13.492Z,127.47
2018-12-31T23:41:41.408Z,118.73
2018-12-31T23:44:09.035Z,89.20
2018-12-31T23:46:36.641Z,46.83
2018-12-31T23:49:04.233Z,41.03
2018-12-31T23:51:33.061Z,36.37
2018-12-31T23:54:00.740Z,55.13
2018-12-31T23:56:28.340Z,50.63
2018-12-31T23:58:55.941Z,52.73
